sensor_id;sensor_type;location;lat;lon;timestamp;P1;P2;P0
70520;PMS5003;58442;52.716;23.560;2023-04-16T00:01:56;1;1;0
70520;PMS5003;58442;52.716;23.560;2023-04-16T00:03:58;1;1;1
70520;PMS5003;58442;52.716;23.560;2023-04-16T00:05:59;1;1;1
70520;PMS5003;58442;52.716;23.560;2023-04-16T00:08:09;0;0;0
70520;PMS5003;58442;52.716;23.560;2023-04-16T00:10:11;0;0;0
70520;PMS5003;58442;52.716;23.560;2023-04-16T00:12:12;0;0;0
70520;PMS5003;58442;52.716;23.560;2023-04-16T00:14:15;1;1;1
70520;PMS5003;58442;52.716;23.560;2023-04-16T00:16:24;1;1;1
70520;PMS5003;58442;52.716;23.560;2023-04-16T00:18:26;1;1;0
70520;PMS5003;58442;52.716;23.560;2023-04-16T00:20:28;1;1;1
70520;PMS5003;58442;52.716;23.560;2023-04-16T00:22:29;1;1;1
70520;PMS5003;58442;52.716;23.560;2023-04-16T00:24:39;1;1;0
70520;PMS5003;58442;52.716;23.560;2023-04-16T00:26:41;0;0;0
70520;PMS5003;58442;52.716;23.560;2023-04-16T00:28:45;2;2;1
70520;PMS5003;58442;52.716;23.560;2023-04-16T00:30:47;0;0;0
70520;PMS5003;58442;52.716;23.560;2023-04-16T00:32:54;0;0;0
70520;PMS5003;58442;52.716;23.560;2023-04-16T00:34:55;1;1;1
70520;PMS5003;58442;52.716;23.560;2023-04-16T00:36:57;1;1;1
70520;PMS5003;58442;52.716;23.560;2023-04-16T00:38:58;1;1;1
70520;PMS5003;58442;52.716;23.560;2023-04-16T00:41:09;1;1;1
70520;PMS5003;58442;52.716;23.560;2023-04-16T00:43:10;1;1;1
70520;PMS5003;58442;52.716;23.560;2023-04-16T00:45:17;1;1;1
70520;PMS5003;58442;52.716;23.560;2023-04-16T00:47:18;2;2;1
70520;PMS5003;58442;52.716;23.560;2023-04-16T00:49:24;1;1;1
70520;PMS5003;58442;52.716;23.560;2023-04-16T00:51:26;1;1;1
70520;PMS5003;58442;52.716;23.560;2023-04-16T00:53:28;2;2;1
70520;PMS5003;58442;52.716;23.560;2023-04-16T00:55:29;0;0;0
70520;PMS5003;58442;52.716;23.560;2023-04-16T00:57:39;0;0;0
70520;PMS5003;58442;52.716;23.560;2023-04-16T00:59:41;2;2;2
70520;PMS5003;58442;52.716;23.560;2023-04-16T01:01:43;0;0;0
70520;PMS5003;58442;52.716;23.560;2023-04-16T01:03:46;0;0;0
70520;PMS5003;58442;52.716;23.560;2023-04-16T01:05:54;1;1;0
70520;PMS5003;58442;52.716;23.560;2023-04-16T01:07:57;1;1;1
70520;PMS5003;58442;52.716;23.560;2023-04-16T01:10:01;1;1;0
70520;PMS5003;58442;52.716;23.560;2023-04-16T01:12:03;2;2;2
70520;PMS5003;58442;52.716;23.560;2023-04-16T01:14:09;1;1;1
70520;PMS5003;58442;52.716;23.560;2023-04-16T01:16:10;0;0;0
70520;PMS5003;58442;52.716;23.560;2023-04-16T01:18:15;0;0;0
70520;PMS5003;58442;52.716;23.560;2023-04-16T01:20:17;1;1;1
70520;PMS5003;58442;52.716;23.560;2023-04-16T01:22:24;0;0;0
70520;PMS5003;58442;52.716;23.560;2023-04-16T01:24:26;1;1;1
70520;PMS5003;58442;52.716;23.560;2023-04-16T01:26:27;1;1;1
70520;PMS5003;58442;52.716;23.560;2023-04-16T01:28:28;2;2;1
70520;PMS5003;58442;52.716;23.560;2023-04-16T01:30:39;1;1;0
70520;PMS5003;58442;52.716;23.560;2023-04-16T01:32:41;0;0;0
70520;PMS5003;58442;52.716;23.560;2023-04-16T01:34:42;0;0;0
70520;PMS5003;58442;52.716;23.560;2023-04-16T01:36:43;0;0;0
70520;PMS5003;58442;52.716;23.560;2023-04-16T01:38:53;0;0;0
70520;PMS5003;58442;52.716;23.560;2023-04-16T01:40:55;1;1;1
70520;PMS5003;58442;52.716;23.560;2023-04-16T01:42:58;0;0;0
70520;PMS5003;58442;52.716;23.560;2023-04-16T01:45:00;2;2;2
70520;PMS5003;58442;52.716;23.560;2023-04-16T01:47:08;1;1;1
70520;PMS5003;58442;52.716;23.560;2023-04-16T01:49:10;1;1;1
70520;PMS5003;58442;52.716;23.560;2023-04-16T01:51:11;0;0;0
70520;PMS5003;58442;52.716;23.560;2023-04-16T01:53:13;1;1;1
70520;PMS5003;58442;52.716;23.560;2023-04-16T01:55:23;2;2;0
70520;PMS5003;58442;52.716;23.560;2023-04-16T01:57:25;0;0;0
70520;PMS5003;58442;52.716;23.560;2023-04-16T01:59:26;1;1;1
70520;PMS5003;58442;52.716;23.560;2023-04-16T02:01:27;1;1;1
70520;PMS5003;58442;52.716;23.560;2023-04-16T02:03:38;1;1;1
70520;PMS5003;58442;52.716;23.560;2023-04-16T02:05:40;1;1;1
70520;PMS5003;58442;52.716;23.560;2023-04-16T02:07:41;1;1;1
70520;PMS5003;58442;52.716;23.560;2023-04-16T02:09:43;1;1;1
70520;PMS5003;58442;52.716;23.560;2023-04-16T02:11:53;1;1;0
70520;PMS5003;58442;52.716;23.560;2023-04-16T02:13:55;0;0;0
70520;PMS5003;58442;52.716;23.560;2023-04-16T02:15:56;0;0;0
70520;PMS5003;58442;52.716;23.560;2023-04-16T02:17:58;0;0;0
70520;PMS5003;58442;52.716;23.560;2023-04-16T02:20:08;0;0;0
70520;PMS5003;58442;52.716;23.560;2023-04-16T02:22:10;2;2;1
70520;PMS5003;58442;52.716;23.560;2023-04-16T02:24:12;1;1;1
70520;PMS5003;58442;52.716;23.560;2023-04-16T02:26:13;2;2;0
70520;PMS5003;58442;52.716;23.560;2023-04-16T02:28:23;1;1;1
70520;PMS5003;58442;52.716;23.560;2023-04-16T02:30:24;1;1;1
70520;PMS5003;58442;52.716;23.560;2023-04-16T02:32:26;2;2;2
70520;PMS5003;58442;52.716;23.560;2023-04-16T02:34:27;1;1;1
70520;PMS5003;58442;52.716;23.560;2023-04-16T02:36:38;2;2;1
70520;PMS5003;58442;52.716;23.560;2023-04-16T02:38:39;1;1;1
70520;PMS5003;58442;52.716;23.560;2023-04-16T02:40:41;1;1;1
70520;PMS5003;58442;52.716;23.560;2023-04-16T02:42:43;1;1;0
70520;PMS5003;58442;52.716;23.560;2023-04-16T02:44:53;3;3;2
70520;PMS5003;58442;52.716;23.560;2023-04-16T02:46:54;1;1;1
70520;PMS5003;58442;52.716;23.560;2023-04-16T02:48:56;5;5;2
70520;PMS5003;58442;52.716;23.560;2023-04-16T02:50:57;1;1;1
70520;PMS5003;58442;52.716;23.560;2023-04-16T02:53:08;2;2;0
70520;PMS5003;58442;52.716;23.560;2023-04-16T02:55:10;2;2;0
70520;PMS5003;58442;52.716;23.560;2023-04-16T02:57:12;3;3;3
70520;PMS5003;58442;52.716;23.560;2023-04-16T02:59:13;3;2;1
70520;PMS5003;58442;52.716;23.560;2023-04-16T03:01:23;2;2;2
70520;PMS5003;58442;52.716;23.560;2023-04-16T03:03:24;2;2;2
70520;PMS5003;58442;52.716;23.560;2023-04-16T03:05:25;2;2;2
70520;PMS5003;58442;52.716;23.560;2023-04-16T03:07:27;1;1;1
70520;PMS5003;58442;52.716;23.560;2023-04-16T03:09:38;2;2;1
70520;PMS5003;58442;52.716;23.560;2023-04-16T03:11:39;1;1;1
70520;PMS5003;58442;52.716;23.560;2023-04-16T03:13:41;1;1;1
70520;PMS5003;58442;52.716;23.560;2023-04-16T03:15:46;1;1;1
70520;PMS5003;58442;52.716;23.560;2023-04-16T03:17:53;2;2;0
70520;PMS5003;58442;52.716;23.560;2023-04-16T03:19:54;0;0;0
70520;PMS5003;58442;52.716;23.560;2023-04-16T03:21:56;2;2;2
70520;PMS5003;58442;52.716;23.560;2023-04-16T03:23:57;1;1;0
70520;PMS5003;58442;52.716;23.560;2023-04-16T03:26:08;1;1;1
70520;PMS5003;58442;52.716;23.560;2023-04-16T03:28:09;2;2;1
70520;PMS5003;58442;52.716;23.560;2023-04-16T03:30:11;1;1;0
70520;PMS5003;58442;52.716;23.560;2023-04-16T03:32:14;2;2;1
70520;PMS5003;58442;52.716;23.560;2023-04-16T03:34:22;1;1;1
70520;PMS5003;58442;52.716;23.560;2023-04-16T03:36:24;2;2;1
70520;PMS5003;58442;52.716;23.560;2023-04-16T03:38:27;3;3;2
70520;PMS5003;58442;52.716;23.560;2023-04-16T03:40:28;2;2;1
70520;PMS5003;58442;52.716;23.560;2023-04-16T03:42:37;1;1;1
70520;PMS5003;58442;52.716;23.560;2023-04-16T03:44:39;1;1;1
70520;PMS5003;58442;52.716;23.560;2023-04-16T03:46:40;3;3;2
70520;PMS5003;58442;52.716;23.560;2023-04-16T03:48:42;1;1;1
70520;PMS5003;58442;52.716;23.560;2023-04-16T03:50:52;1;1;0
70520;PMS5003;58442;52.716;23.560;2023-04-16T03:52:54;2;2;1
70520;PMS5003;58442;52.716;23.560;2023-04-16T03:54:55;2;2;1
70520;PMS5003;58442;52.716;23.560;2023-04-16T03:56:56;2;2;1
70520;PMS5003;58442;52.716;23.560;2023-04-16T03:59:07;3;3;1
70520;PMS5003;58442;52.716;23.560;2023-04-16T04:01:09;3;3;2
70520;PMS5003;58442;52.716;23.560;2023-04-16T04:03:10;3;3;2
70520;PMS5003;58442;52.716;23.560;2023-04-16T04:05:12;3;3;2
70520;PMS5003;58442;52.716;23.560;2023-04-16T04:07:22;2;2;2
70520;PMS5003;58442;52.716;23.560;2023-04-16T04:09:24;1;1;1
70520;PMS5003;58442;52.716;23.560;2023-04-16T04:11:25;2;2;1
70520;PMS5003;58442;52.716;23.560;2023-04-16T04:13:27;5;4;2
70520;PMS5003;58442;52.716;23.560;2023-04-16T04:15:37;4;3;2
70520;PMS5003;58442;52.716;23.560;2023-04-16T04:17:38;2;2;2
70520;PMS5003;58442;52.716;23.560;2023-04-16T04:19:40;3;3;2
70520;PMS5003;58442;52.716;23.560;2023-04-16T04:21:41;4;4;3
70520;PMS5003;58442;52.716;23.560;2023-04-16T04:23:52;5;5;2
70520;PMS5003;58442;52.716;23.560;2023-04-16T04:25:53;2;2;1
70520;PMS5003;58442;52.716;23.560;2023-04-16T04:27:55;3;3;2
70520;PMS5003;58442;52.716;23.560;2023-04-16T04:29:56;1;1;1
70520;PMS5003;58442;52.716;23.560;2023-04-16T04:32:07;3;3;2
70520;PMS5003;58442;52.716;23.560;2023-04-16T04:34:08;2;2;1
70520;PMS5003;58442;52.716;23.560;2023-04-16T04:36:10;4;3;2
70520;PMS5003;58442;52.716;23.560;2023-04-16T04:38:11;5;5;3
70520;PMS5003;58442;52.716;23.560;2023-04-16T04:40:22;4;4;2
70520;PMS5003;58442;52.716;23.560;2023-04-16T04:42:23;3;3;2
70520;PMS5003;58442;52.716;23.560;2023-04-16T04:44:24;3;3;2
70520;PMS5003;58442;52.716;23.560;2023-04-16T04:46:26;2;2;2
70520;PMS5003;58442;52.716;23.560;2023-04-16T04:48:37;3;3;2
70520;PMS5003;58442;52.716;23.560;2023-04-16T04:50:38;3;3;2
70520;PMS5003;58442;52.716;23.560;2023-04-16T04:52:40;4;4;3
70520;PMS5003;58442;52.716;23.560;2023-04-16T04:54:42;5;5;3
70520;PMS5003;58442;52.716;23.560;2023-04-16T04:56:52;1;1;0
70520;PMS5003;58442;52.716;23.560;2023-04-16T04:58:53;1;1;1
70520;PMS5003;58442;52.716;23.560;2023-04-16T05:00:55;6;6;4
70520;PMS5003;58442;52.716;23.560;2023-04-16T05:02:57;2;2;2
70520;PMS5003;58442;52.716;23.560;2023-04-16T05:05:07;5;5;1
70520;PMS5003;58442;52.716;23.560;2023-04-16T05:07:08;1;1;0
70520;PMS5003;58442;52.716;23.560;2023-04-16T05:09:10;2;2;1
70520;PMS5003;58442;52.716;23.560;2023-04-16T05:11:11;2;2;1
70520;PMS5003;58442;52.716;23.560;2023-04-16T05:13:21;2;2;1
70520;PMS5003;58442;52.716;23.560;2023-04-16T05:15:23;0;0;0
70520;PMS5003;58442;52.716;23.560;2023-04-16T05:17:24;2;2;2
70520;PMS5003;58442;52.716;23.560;2023-04-16T05:19:26;0;0;0
70520;PMS5003;58442;52.716;23.560;2023-04-16T05:21:36;4;4;2
70520;PMS5003;58442;52.716;23.560;2023-04-16T05:23:38;1;1;1
70520;PMS5003;58442;52.716;23.560;2023-04-16T05:25:39;2;2;0
70520;PMS5003;58442;52.716;23.560;2023-04-16T05:27:40;1;1;1
70520;PMS5003;58442;52.716;23.560;2023-04-16T05:29:51;2;2;1
70520;PMS5003;58442;52.716;23.560;2023-04-16T05:31:53;4;3;2
70520;PMS5003;58442;52.716;23.560;2023-04-16T05:33:54;2;2;1
70520;PMS5003;58442;52.716;23.560;2023-04-16T05:35:55;2;2;1
70520;PMS5003;58442;52.716;23.560;2023-04-16T05:38:09;0;0;0
70520;PMS5003;58442;52.716;23.560;2023-04-16T05:40:12;2;2;2
70520;PMS5003;58442;52.716;23.560;2023-04-16T05:42:13;1;1;0
70520;PMS5003;58442;52.716;23.560;2023-04-16T05:44:15;2;2;2
70520;PMS5003;58442;52.716;23.560;2023-04-16T05:46:21;2;2;1
70520;PMS5003;58442;52.716;23.560;2023-04-16T05:48:22;1;1;0
70520;PMS5003;58442;52.716;23.560;2023-04-16T05:50:24;1;1;1
70520;PMS5003;58442;52.716;23.560;2023-04-16T05:52:25;1;1;0
70520;PMS5003;58442;52.716;23.560;2023-04-16T05:54:36;2;2;1
70520;PMS5003;58442;52.716;23.560;2023-04-16T05:56:37;2;2;1
70520;PMS5003;58442;52.716;23.560;2023-04-16T05:58:38;1;1;1
70520;PMS5003;58442;52.716;23.560;2023-04-16T06:00:40;5;4;2
70520;PMS5003;58442;52.716;23.560;2023-04-16T06:02:51;2;2;1
70520;PMS5003;58442;52.716;23.560;2023-04-16T06:04:52;1;1;1
70520;PMS5003;58442;52.716;23.560;2023-04-16T06:06:54;2;2;1
70520;PMS5003;58442;52.716;23.560;2023-04-16T06:08:55;2;2;1
70520;PMS5003;58442;52.716;23.560;2023-04-16T06:11:06;1;1;0
70520;PMS5003;58442;52.716;23.560;2023-04-16T06:13:07;1;1;1
70520;PMS5003;58442;52.716;23.560;2023-04-16T06:15:09;1;1;1
70520;PMS5003;58442;52.716;23.560;2023-04-16T06:17:10;2;2;1
70520;PMS5003;58442;52.716;23.560;2023-04-16T06:19:21;2;2;1
70520;PMS5003;58442;52.716;23.560;2023-04-16T06:21:22;2;1;1
70520;PMS5003;58442;52.716;23.560;2023-04-16T06:23:23;1;1;1
70520;PMS5003;58442;52.716;23.560;2023-04-16T06:25:25;0;0;0
70520;PMS5003;58442;52.716;23.560;2023-04-16T06:27:35;0;0;0
70520;PMS5003;58442;52.716;23.560;2023-04-16T06:29:37;0;0;0
70520;PMS5003;58442;52.716;23.560;2023-04-16T06:31:38;1;1;0
70520;PMS5003;58442;52.716;23.560;2023-04-16T06:33:40;0;0;0
70520;PMS5003;58442;52.716;23.560;2023-04-16T06:35:50;0;0;0
70520;PMS5003;58442;52.716;23.560;2023-04-16T06:37:52;1;1;0
70520;PMS5003;58442;52.716;23.560;2023-04-16T06:39:53;1;1;1
70520;PMS5003;58442;52.716;23.560;2023-04-16T06:41:55;1;1;1
70520;PMS5003;58442;52.716;23.560;2023-04-16T06:44:05;0;0;0
70520;PMS5003;58442;52.716;23.560;2023-04-16T06:46:07;2;2;1
70520;PMS5003;58442;52.716;23.560;2023-04-16T06:48:08;0;0;0
70520;PMS5003;58442;52.716;23.560;2023-04-16T06:50:10;2;2;1
70520;PMS5003;58442;52.716;23.560;2023-04-16T06:52:20;0;0;0
70520;PMS5003;58442;52.716;23.560;2023-04-16T06:54:21;1;1;0
70520;PMS5003;58442;52.716;23.560;2023-04-16T06:56:23;2;2;1
70520;PMS5003;58442;52.716;23.560;2023-04-16T06:58:24;1;1;0
70520;PMS5003;58442;52.716;23.560;2023-04-16T07:00:35;0;0;0
70520;PMS5003;58442;52.716;23.560;2023-04-16T07:02:37;1;1;0
70520;PMS5003;58442;52.716;23.560;2023-04-16T07:04:38;1;1;0
70520;PMS5003;58442;52.716;23.560;2023-04-16T07:06:40;0;0;0
70520;PMS5003;58442;52.716;23.560;2023-04-16T07:08:50;1;1;1
70520;PMS5003;58442;52.716;23.560;2023-04-16T07:10:51;1;1;1
70520;PMS5003;58442;52.716;23.560;2023-04-16T07:12:53;1;1;0
70520;PMS5003;58442;52.716;23.560;2023-04-16T07:14:55;0;0;0
70520;PMS5003;58442;52.716;23.560;2023-04-16T07:17:05;1;1;1
70520;PMS5003;58442;52.716;23.560;2023-04-16T07:19:06;1;1;0
70520;PMS5003;58442;52.716;23.560;2023-04-16T07:21:07;1;1;1
70520;PMS5003;58442;52.716;23.560;2023-04-16T07:23:09;1;1;0
70520;PMS5003;58442;52.716;23.560;2023-04-16T07:25:19;1;1;1
70520;PMS5003;58442;52.716;23.560;2023-04-16T07:27:21;1;1;1
70520;PMS5003;58442;52.716;23.560;2023-04-16T07:29:22;1;1;0
70520;PMS5003;58442;52.716;23.560;2023-04-16T07:31:24;2;1;1
70520;PMS5003;58442;52.716;23.560;2023-04-16T07:33:34;2;2;2
70520;PMS5003;58442;52.716;23.560;2023-04-16T07:35:36;1;1;0
70520;PMS5003;58442;52.716;23.560;2023-04-16T07:37:37;0;0;0
70520;PMS5003;58442;52.716;23.560;2023-04-16T07:39:39;0;0;0
70520;PMS5003;58442;52.716;23.560;2023-04-16T07:41:49;1;1;1
70520;PMS5003;58442;52.716;23.560;2023-04-16T07:43:51;2;2;1
70520;PMS5003;58442;52.716;23.560;2023-04-16T07:45:52;2;2;1
70520;PMS5003;58442;52.716;23.560;2023-04-16T07:47:54;0;0;0
70520;PMS5003;58442;52.716;23.560;2023-04-16T07:50:04;2;2;0
70520;PMS5003;58442;52.716;23.560;2023-04-16T07:52:07;1;1;0
70520;PMS5003;58442;52.716;23.560;2023-04-16T07:54:09;0;0;0
70520;PMS5003;58442;52.716;23.560;2023-04-16T07:56:11;1;1;0
70520;PMS5003;58442;52.716;23.560;2023-04-16T07:58:19;1;1;1
70520;PMS5003;58442;52.716;23.560;2023-04-16T08:00:20;1;1;1
70520;PMS5003;58442;52.716;23.560;2023-04-16T08:02:22;1;1;1
70520;PMS5003;58442;52.716;23.560;2023-04-16T08:04:23;2;2;1
70520;PMS5003;58442;52.716;23.560;2023-04-16T08:06:34;1;1;1
70520;PMS5003;58442;52.716;23.560;2023-04-16T08:08:35;1;1;0
70520;PMS5003;58442;52.716;23.560;2023-04-16T08:10:37;2;2;1
70520;PMS5003;58442;52.716;23.560;2023-04-16T08:12:39;1;1;0
70520;PMS5003;58442;52.716;23.560;2023-04-16T08:14:49;2;2;1
70520;PMS5003;58442;52.716;23.560;2023-04-16T08:16:50;2;2;2
70520;PMS5003;58442;52.716;23.560;2023-04-16T08:18:52;2;2;1
70520;PMS5003;58442;52.716;23.560;2023-04-16T08:20:53;0;0;0
70520;PMS5003;58442;52.716;23.560;2023-04-16T08:23:03;3;3;2
70520;PMS5003;58442;52.716;23.560;2023-04-16T08:25:05;1;1;1
70520;PMS5003;58442;52.716;23.560;2023-04-16T08:27:07;1;1;1
70520;PMS5003;58442;52.716;23.560;2023-04-16T08:29:11;1;1;1
70520;PMS5003;58442;52.716;23.560;2023-04-16T08:31:18;1;1;1
70520;PMS5003;58442;52.716;23.560;2023-04-16T08:33:20;2;2;2
70520;PMS5003;58442;52.716;23.560;2023-04-16T08:35:21;1;1;1
70520;PMS5003;58442;52.716;23.560;2023-04-16T08:37:23;1;1;1
70520;PMS5003;58442;52.716;23.560;2023-04-16T08:39:33;4;4;3
70520;PMS5003;58442;52.716;23.560;2023-04-16T08:41:35;1;1;1
70520;PMS5003;58442;52.716;23.560;2023-04-16T08:43:43;0;0;0
70520;PMS5003;58442;52.716;23.560;2023-04-16T08:45:45;2;2;1
70520;PMS5003;58442;52.716;23.560;2023-04-16T08:47:49;2;2;2
70520;PMS5003;58442;52.716;23.560;2023-04-16T08:49:51;2;2;2
70520;PMS5003;58442;52.716;23.560;2023-04-16T08:51:55;3;3;2
70520;PMS5003;58442;52.716;23.560;2023-04-16T08:53:59;2;2;1
70520;PMS5003;58442;52.716;23.560;2023-04-16T08:56:08;3;3;2
70520;PMS5003;58442;52.716;23.560;2023-04-16T08:58:18;3;3;2
70520;PMS5003;58442;52.716;23.560;2023-04-16T09:00:21;3;3;2
70520;PMS5003;58442;52.716;23.560;2023-04-16T09:02:24;3;3;2
70520;PMS5003;58442;52.716;23.560;2023-04-16T09:04:26;2;2;2
70520;PMS5003;58442;52.716;23.560;2023-04-16T09:06:28;4;4;2
70520;PMS5003;58442;52.716;23.560;2023-04-16T09:08:31;3;3;2
70520;PMS5003;58442;52.716;23.560;2023-04-16T09:10:35;5;5;2
70520;PMS5003;58442;52.716;23.560;2023-04-16T09:12:42;2;2;2
70520;PMS5003;58442;52.716;23.560;2023-04-16T09:14:47;2;2;2
70520;PMS5003;58442;52.716;23.560;2023-04-16T09:16:50;3;3;3
70520;PMS5003;58442;52.716;23.560;2023-04-16T09:18:55;6;6;3
70520;PMS5003;58442;52.716;23.560;2023-04-16T09:20:57;2;2;2
70520;PMS5003;58442;52.716;23.560;2023-04-16T09:22:58;3;3;2
70520;PMS5003;58442;52.716;23.560;2023-04-16T09:25:00;8;8;5
70520;PMS5003;58442;52.716;23.560;2023-04-16T09:27:01;4;4;3
70520;PMS5003;58442;52.716;23.560;2023-04-16T09:29:10;5;5;3
70520;PMS5003;58442;52.716;23.560;2023-04-16T09:31:12;5;5;3
70520;PMS5003;58442;52.716;23.560;2023-04-16T09:33:18;7;7;3
70520;PMS5003;58442;52.716;23.560;2023-04-16T09:35:24;4;4;3
70520;PMS5003;58442;52.716;23.560;2023-04-16T09:37:29;5;5;3
70520;PMS5003;58442;52.716;23.560;2023-04-16T09:39:31;4;4;3
70520;PMS5003;58442;52.716;23.560;2023-04-16T09:41:32;5;5;4
70520;PMS5003;58442;52.716;23.560;2023-04-16T09:43:39;5;5;3
70520;PMS5003;58442;52.716;23.560;2023-04-16T09:48:01;1;1;1
70520;PMS5003;58442;52.716;23.560;2023-04-16T09:50:06;4;4;2
70520;PMS5003;58442;52.716;23.560;2023-04-16T09:52:12;5;5;1
70520;PMS5003;58442;52.716;23.560;2023-04-16T09:54:15;3;3;3
70520;PMS5003;58442;52.716;23.560;2023-04-16T09:56:16;6;6;4
70520;PMS5003;58442;52.716;23.560;2023-04-16T09:58:18;6;6;2
70520;PMS5003;58442;52.716;23.560;2023-04-16T10:00:20;6;6;3
70520;PMS5003;58442;52.716;23.560;2023-04-16T10:02:26;8;7;4
70520;PMS5003;58442;52.716;23.560;2023-04-16T10:04:36;7;7;4
70520;PMS5003;58442;52.716;23.560;2023-04-16T10:09:13;10;8;4
70520;PMS5003;58442;52.716;23.560;2023-04-16T10:11:15;6;6;3
70520;PMS5003;58442;52.716;23.560;2023-04-16T10:13:18;8;8;5
70520;PMS5003;58442;52.716;23.560;2023-04-16T10:15:19;4;4;2
70520;PMS5003;58442;52.716;23.560;2023-04-16T10:17:28;6;6;4
70520;PMS5003;58442;52.716;23.560;2023-04-16T10:19:31;11;9;5
70520;PMS5003;58442;52.716;23.560;2023-04-16T10:21:34;8;8;5
70520;PMS5003;58442;52.716;23.560;2023-04-16T10:23:35;10;10;6
70520;PMS5003;58442;52.716;23.560;2023-04-16T10:25:43;15;14;7
70520;PMS5003;58442;52.716;23.560;2023-04-16T10:27:45;9;8;6
70520;PMS5003;58442;52.716;23.560;2023-04-16T10:29:47;10;10;6
70520;PMS5003;58442;52.716;23.560;2023-04-16T10:31:50;8;8;6
70520;PMS5003;58442;52.716;23.560;2023-04-16T10:33:58;8;8;4
70520;PMS5003;58442;52.716;23.560;2023-04-16T10:40:25;6;6;3
70520;PMS5003;58442;52.716;23.560;2023-04-16T10:42:27;8;8;4
70520;PMS5003;58442;52.716;23.560;2023-04-16T10:44:39;10;10;5
70520;PMS5003;58442;52.716;23.560;2023-04-16T10:46:41;9;9;5
70520;PMS5003;58442;52.716;23.560;2023-04-16T10:48:44;4;4;1
70520;PMS5003;58442;52.716;23.560;2023-04-16T10:50:56;7;7;5
70520;PMS5003;58442;52.716;23.560;2023-04-16T10:55:18;9;7;5
70520;PMS5003;58442;52.716;23.560;2023-04-16T10:57:19;8;8;6
70520;PMS5003;58442;52.716;23.560;2023-04-16T10:59:21;11;11;6
70520;PMS5003;58442;52.716;23.560;2023-04-16T11:03:33;10;10;6
70520;PMS5003;58442;52.716;23.560;2023-04-16T11:05:43;7;7;4
70520;PMS5003;58442;52.716;23.560;2023-04-16T11:07:47;9;9;5
70520;PMS5003;58442;52.716;23.560;2023-04-16T11:09:52;10;10;6
70520;PMS5003;58442;52.716;23.560;2023-04-16T11:12:01;13;13;7
70520;PMS5003;58442;52.716;23.560;2023-04-16T11:14:12;8;7;6
70520;PMS5003;58442;52.716;23.560;2023-04-16T11:16:15;8;7;5
70520;PMS5003;58442;52.716;23.560;2023-04-16T11:18:20;9;9;6
70520;PMS5003;58442;52.716;23.560;2023-04-16T11:20:22;12;12;6
70520;PMS5003;58442;52.716;23.560;2023-04-16T11:22:27;8;8;3
70520;PMS5003;58442;52.716;23.560;2023-04-16T11:24:29;12;12;6
70520;PMS5003;58442;52.716;23.560;2023-04-16T11:26:31;11;11;6
70520;PMS5003;58442;52.716;23.560;2023-04-16T11:28:33;9;9;5
70520;PMS5003;58442;52.716;23.560;2023-04-16T11:30:42;11;11;7
70520;PMS5003;58442;52.716;23.560;2023-04-16T11:32:43;11;11;8
70520;PMS5003;58442;52.716;23.560;2023-04-16T11:34:45;10;8;6
70520;PMS5003;58442;52.716;23.560;2023-04-16T11:36:48;10;10;7
70520;PMS5003;58442;52.716;23.560;2023-04-16T11:39:00;9;9;7
70520;PMS5003;58442;52.716;23.560;2023-04-16T11:41:03;9;9;7
70520;PMS5003;58442;52.716;23.560;2023-04-16T11:45:16;12;12;7
70520;PMS5003;58442;52.716;23.560;2023-04-16T11:47:21;11;11;7
70520;PMS5003;58442;52.716;23.560;2023-04-16T11:49:33;9;9;5
70520;PMS5003;58442;52.716;23.560;2023-04-16T11:53:46;13;13;8
70520;PMS5003;58442;52.716;23.560;2023-04-16T11:55:48;10;9;8
70520;PMS5003;58442;52.716;23.560;2023-04-16T11:57:50;15;13;8
70520;PMS5003;58442;52.716;23.560;2023-04-16T11:59:51;9;9;6
70520;PMS5003;58442;52.716;23.560;2023-04-16T12:01:53;8;8;5
70520;PMS5003;58442;52.716;23.560;2023-04-16T12:03:59;9;9;7
70520;PMS5003;58442;52.716;23.560;2023-04-16T12:08:10;9;9;6
70520;PMS5003;58442;52.716;23.560;2023-04-16T12:10:12;12;12;7
70520;PMS5003;58442;52.716;23.560;2023-04-16T12:14:27;9;9;8
70520;PMS5003;58442;52.716;23.560;2023-04-16T12:16:38;9;9;7
70520;PMS5003;58442;52.716;23.560;2023-04-16T12:18:44;11;10;7
70520;PMS5003;58442;52.716;23.560;2023-04-16T12:20:52;10;10;6
70520;PMS5003;58442;52.716;23.560;2023-04-16T12:22:53;11;11;8
70520;PMS5003;58442;52.716;23.560;2023-04-16T12:25:01;10;10;8
70520;PMS5003;58442;52.716;23.560;2023-04-16T12:27:17;10;10;6
70520;PMS5003;58442;52.716;23.560;2023-04-16T12:29:20;10;10;7
70520;PMS5003;58442;52.716;23.560;2023-04-16T12:33:36;10;10;6
70520;PMS5003;58442;52.716;23.560;2023-04-16T12:35:37;9;9;7
70520;PMS5003;58442;52.716;23.560;2023-04-16T12:37:41;10;10;6
70520;PMS5003;58442;52.716;23.560;2023-04-16T12:39:42;9;9;7
70520;PMS5003;58442;52.716;23.560;2023-04-16T12:41:43;9;9;7
70520;PMS5003;58442;52.716;23.560;2023-04-16T12:43:47;9;9;6
70520;PMS5003;58442;52.716;23.560;2023-04-16T12:45:49;9;9;7
70520;PMS5003;58442;52.716;23.560;2023-04-16T12:47:50;10;10;7
70520;PMS5003;58442;52.716;23.560;2023-04-16T12:49:52;9;9;7
70520;PMS5003;58442;52.716;23.560;2023-04-16T12:52:02;13;11;8
70520;PMS5003;58442;52.716;23.560;2023-04-16T12:54:04;7;7;6
70520;PMS5003;58442;52.716;23.560;2023-04-16T12:56:09;8;8;6
70520;PMS5003;58442;52.716;23.560;2023-04-16T12:58:11;7;7;6
70520;PMS5003;58442;52.716;23.560;2023-04-16T13:00:17;7;7;7
70520;PMS5003;58442;52.716;23.560;2023-04-16T13:02:20;9;9;6
70520;PMS5003;58442;52.716;23.560;2023-04-16T13:04:21;8;8;6
70520;PMS5003;58442;52.716;23.560;2023-04-16T13:06:23;9;9;7
70520;PMS5003;58442;52.716;23.560;2023-04-16T13:08:31;8;8;5
70520;PMS5003;58442;52.716;23.560;2023-04-16T13:10:33;10;10;7
70520;PMS5003;58442;52.716;23.560;2023-04-16T13:12:35;8;8;6
70520;PMS5003;58442;52.716;23.560;2023-04-16T13:14:37;10;10;7
70520;PMS5003;58442;52.716;23.560;2023-04-16T13:16:46;7;7;6
70520;PMS5003;58442;52.716;23.560;2023-04-16T13:18:48;8;8;7
70520;PMS5003;58442;52.716;23.560;2023-04-16T13:20:49;11;11;8
70520;PMS5003;58442;52.716;23.560;2023-04-16T13:22:51;11;11;7
70520;PMS5003;58442;52.716;23.560;2023-04-16T13:25:01;7;7;6
70520;PMS5003;58442;52.716;23.560;2023-04-16T13:27:03;10;10;8
70520;PMS5003;58442;52.716;23.560;2023-04-16T13:29:04;8;8;6
70520;PMS5003;58442;52.716;23.560;2023-04-16T13:31:06;8;8;6
70520;PMS5003;58442;52.716;23.560;2023-04-16T13:33:16;10;10;8
70520;PMS5003;58442;52.716;23.560;2023-04-16T13:35:17;6;6;5
70520;PMS5003;58442;52.716;23.560;2023-04-16T13:37:19;9;9;7
70520;PMS5003;58442;52.716;23.560;2023-04-16T13:39:20;7;7;7
70520;PMS5003;58442;52.716;23.560;2023-04-16T13:41:30;9;9;6
70520;PMS5003;58442;52.716;23.560;2023-04-16T13:43:32;13;12;8
70520;PMS5003;58442;52.716;23.560;2023-04-16T13:45:33;10;10;7
70520;PMS5003;58442;52.716;23.560;2023-04-16T13:47:35;12;12;9
70520;PMS5003;58442;52.716;23.560;2023-04-16T13:49:45;12;12;10
70520;PMS5003;58442;52.716;23.560;2023-04-16T13:51:47;12;12;8
70520;PMS5003;58442;52.716;23.560;2023-04-16T13:53:49;12;12;8
70520;PMS5003;58442;52.716;23.560;2023-04-16T13:55:50;11;11;8
70520;PMS5003;58442;52.716;23.560;2023-04-16T13:58:00;8;8;6
70520;PMS5003;58442;52.716;23.560;2023-04-16T14:00:02;7;7;7
70520;PMS5003;58442;52.716;23.560;2023-04-16T14:02:04;7;7;6
70520;PMS5003;58442;52.716;23.560;2023-04-16T14:04:06;9;9;7